createdAt,value
2022-08-08T00:01:17.696Z,99.90
2022-08-08T00:03:55.514Z,99.90
2022-08-08T00:06:36.398Z,99.90
2022-08-08T00:09:12.133Z,99.90
2022-08-08T00:11:47.050Z,99.90
2022-08-08T00:14:56.923Z,99.90
2022-08-08T00:17:58.570Z,99.90
2022-08-08T00:20:37.086Z,99.90
2022-08-08T00:23:09.114Z,99.90
2022-08-08T00:25:46.129Z,99.90
2022-08-08T00:28:36.629Z,99.90
2022-08-08T00:32:15.607Z,99.90
2022-08-08T00:34:36.440Z,99.90
2022-08-08T00:37:47.786Z,99.90
2022-08-08T00:41:06.825Z,99.90
2022-08-08T00:44:13.919Z,99.90
2022-08-08T00:47:22.982Z,99.90
2022-08-08T00:50:30.505Z,99.90
2022-08-08T00:53:15.779Z,99.90
2022-08-08T00:56:22.182Z,99.90
2022-08-08T00:59:44.472Z,99.90
2022-08-08T01:03:58.499Z,99.90
2022-08-08T01:06:11.127Z,99.90
2022-08-08T01:09:36.138Z,99.90
2022-08-08T01:12:34.051Z,99.90
2022-08-08T01:15:43.341Z,99.90
2022-08-08T01:18:53.068Z,99.90
2022-08-08T01:22:11.717Z,99.90
2022-08-08T01:24:59.631Z,99.90
2022-08-08T01:28:15.618Z,99.90
2022-08-08T01:32:12.990Z,99.90
2022-08-08T01:34:58.821Z,99.90
2022-08-08T01:38:28.422Z,99.90
2022-08-08T01:41:03.775Z,99.90
2022-08-08T01:43:45.680Z,99.90
2022-08-08T01:46:39.848Z,99.90
2022-08-08T01:49:22.890Z,99.90
2022-08-08T01:53:03.985Z,99.90
2022-08-08T01:55:46.217Z,99.90
2022-08-08T01:58:19.181Z,99.90
2022-08-08T02:01:17.259Z,99.90
2022-08-08T02:04:01.834Z,99.90
2022-08-08T02:06:53.300Z,99.90
2022-08-08T02:10:01.758Z,99.90
2022-08-08T02:12:27.511Z,99.90
2022-08-08T02:15:04.066Z,99.90
2022-08-08T02:17:50.317Z,99.90
2022-08-08T02:20:59.931Z,99.90
2022-08-08T02:23:23.150Z,99.90
2022-08-08T02:26:08.303Z,99.90
2022-08-08T02:28:51.686Z,99.90
2022-08-08T02:31:58.574Z,99.90
2022-08-08T02:35:07.888Z,99.90
2022-08-08T02:37:52.727Z,99.90
2022-08-08T02:40:38.065Z,99.90
2022-08-08T02:44:35.344Z,99.90
2022-08-08T02:46:57.725Z,99.90
2022-08-08T02:50:17.685Z,99.90
2022-08-08T02:53:09.383Z,99.90
2022-08-08T02:56:29.943Z,99.90
2022-08-08T02:59:57.745Z,99.90
2022-08-08T03:03:09.261Z,99.90
2022-08-08T03:06:34.493Z,99.90
2022-08-08T03:09:55.370Z,99.90
2022-08-08T03:13:01.186Z,99.90
2022-08-08T03:16:12.011Z,99.90
2022-08-08T03:18:53.696Z,99.90
2022-08-08T03:21:26.953Z,99.90
2022-08-08T03:24:10.427Z,99.90
2022-08-08T03:26:44.406Z,99.90
2022-08-08T03:29:38.222Z,99.90
2022-08-08T03:32:29.218Z,99.90
2022-08-08T03:34:58.621Z,99.90
2022-08-08T03:38:54.722Z,99.90
2022-08-08T03:40:30.425Z,99.90
2022-08-08T03:43:18.132Z,99.90
2022-08-08T03:46:05.095Z,99.90
2022-08-08T03:49:56.562Z,99.90
2022-08-08T03:51:40.020Z,99.90
2022-08-08T03:54:09.626Z,99.90
2022-08-08T03:56:39.223Z,99.90
2022-08-08T03:59:07.203Z,99.90
2022-08-08T04:02:13.578Z,99.90
2022-08-08T04:04:39.947Z,99.90
2022-08-08T04:07:10.020Z,99.90
2022-08-08T04:10:00.432Z,99.90
2022-08-08T04:12:35.315Z,99.90
2022-08-08T04:15:04.813Z,99.90
2022-08-08T04:17:58.571Z,99.90
2022-08-08T04:20:21.453Z,99.90
2022-08-08T04:22:57.260Z,99.90
2022-08-08T04:25:30.220Z,99.90
2022-08-08T04:28:36.698Z,99.90
2022-08-08T04:30:50.797Z,99.90
2022-08-08T04:33:23.372Z,99.90
2022-08-08T04:35:51.753Z,99.90
2022-08-08T04:38:21.643Z,99.90
2022-08-08T04:40:54.389Z,99.90
2022-08-08T04:43:32.288Z,99.90
2022-08-08T04:46:12.287Z,99.90
2022-08-08T04:48:43.390Z,99.90
2022-08-08T04:51:12.062Z,99.90
2022-08-08T04:53:52.125Z,99.90
2022-08-08T04:56:33.822Z,99.90
2022-08-08T04:59:03.284Z,99.90
2022-08-08T05:01:35.673Z,99.90
2022-08-08T05:04:16.510Z,99.90
2022-08-08T05:06:46.693Z,99.90
2022-08-08T05:09:15.920Z,99.90
2022-08-08T05:11:47.599Z,99.90
2022-08-08T05:14:26.070Z,99.90
2022-08-08T05:17:01.070Z,99.90
2022-08-08T05:20:11.851Z,99.90
2022-08-08T05:22:18.026Z,99.90
2022-08-08T05:24:48.349Z,99.90
2022-08-08T05:27:17.050Z,99.90
2022-08-08T05:29:51.836Z,99.90
2022-08-08T05:32:27.080Z,99.90
2022-08-08T05:35:04.430Z,99.90
2022-08-08T05:37:49.178Z,99.90
2022-08-08T05:40:27.615Z,99.90
2022-08-08T05:43:40.020Z,99.90
2022-08-08T05:46:03.705Z,99.90
2022-08-08T05:48:34.579Z,99.90
2022-08-08T05:51:14.578Z,99.90
2022-08-08T05:54:24.545Z,99.90
2022-08-08T05:56:42.595Z,99.90
2022-08-08T06:00:00.014Z,99.90
2022-08-08T06:02:34.608Z,99.90
2022-08-08T06:05:06.814Z,99.90
2022-08-08T06:08:02.687Z,99.90
2022-08-08T06:10:40.662Z,99.90
2022-08-08T06:13:09.818Z,99.90
2022-08-08T06:15:50.667Z,99.90
2022-08-08T06:18:25.669Z,99.90
2022-08-08T06:20:56.456Z,99.90
2022-08-08T06:23:49.062Z,99.90
2022-08-08T06:26:39.083Z,99.90
2022-08-08T06:29:26.681Z,99.90
2022-08-08T06:32:11.247Z,99.90
2022-08-08T06:34:56.268Z,99.90
2022-08-08T06:37:39.532Z,99.90
2022-08-08T06:40:14.289Z,99.90
2022-08-08T06:42:54.592Z,99.90
2022-08-08T06:45:24.034Z,99.90
2022-08-08T06:48:01.319Z,99.90
2022-08-08T06:50:33.735Z,99.90
2022-08-08T06:53:14.202Z,99.90
2022-08-08T06:55:47.173Z,99.90
2022-08-08T06:58:30.797Z,99.90
2022-08-08T07:01:11.649Z,99.90
2022-08-08T07:04:36.350Z,99.90
2022-08-08T07:06:52.292Z,99.90
2022-08-08T07:09:21.847Z,99.90
2022-08-08T07:11:58.187Z,99.90
2022-08-08T07:14:29.797Z,99.90
2022-08-08T07:17:09.207Z,99.90
2022-08-08T07:19:48.763Z,99.90
2022-08-08T07:22:25.653Z,99.90
2022-08-08T07:24:59.722Z,99.90
2022-08-08T07:27:47.526Z,99.90
2022-08-08T07:30:21.196Z,99.90
2022-08-08T07:32:54.225Z,99.90
2022-08-08T07:35:23.249Z,99.90
2022-08-08T07:38:04.506Z,99.90
2022-08-08T07:40:40.039Z,99.90
2022-08-08T07:43:09.242Z,99.90
2022-08-08T07:45:51.426Z,99.90
2022-08-08T07:48:29.734Z,99.90
2022-08-08T07:51:00.860Z,99.90
2022-08-08T07:54:01.459Z,99.90
2022-08-08T07:56:35.554Z,99.90
2022-08-08T07:59:10.947Z,99.90
2022-08-08T08:02:35.104Z,99.90
2022-08-08T08:04:35.894Z,99.90
2022-08-08T08:07:08.873Z,99.90
2022-08-08T08:09:40.260Z,99.90
2022-08-08T08:12:11.220Z,99.10
2022-08-08T08:15:04.918Z,97.60
2022-08-08T08:17:47.744Z,97.30
2022-08-08T08:20:18.781Z,97.40
2022-08-08T08:22:47.618Z,97.30
2022-08-08T08:25:32.938Z,96.20
2022-08-08T08:28:09.295Z,96.00
2022-08-08T08:30:39.244Z,96.70
2022-08-08T08:33:10.858Z,96.90
2022-08-08T08:36:18.883Z,97.30
2022-08-08T08:38:28.276Z,98.00
2022-08-08T08:40:58.141Z,97.30
2022-08-08T08:43:29.101Z,97.80
2022-08-08T08:45:58.352Z,97.40
2022-08-08T08:48:32.655Z,98.00
2022-08-08T08:51:03.540Z,97.80
2022-08-08T08:53:55.441Z,97.80
2022-08-08T08:56:29.404Z,98.00
2022-08-08T08:58:59.018Z,97.70
2022-08-08T09:01:34.933Z,98.00
2022-08-08T09:04:31.673Z,98.40
2022-08-08T09:07:00.359Z,97.60
2022-08-08T09:09:39.622Z,97.70
2022-08-08T09:12:20.344Z,97.40
2022-08-08T09:14:50.415Z,97.20
2022-08-08T09:17:31.455Z,95.60
2022-08-08T09:21:59.387Z,95.00
2022-08-08T09:22:59.343Z,95.20
2022-08-08T09:25:35.671Z,96.20
2022-08-08T09:28:06.039Z,96.30
2022-08-08T09:30:37.516Z,95.10
2022-08-08T09:34:06.251Z,94.80
2022-08-08T09:36:01.586Z,94.70
2022-08-08T09:38:52.576Z,95.30
2022-08-08T09:41:33.405Z,95.00
2022-08-08T09:44:19.127Z,93.90
2022-08-08T09:48:04.894Z,93.60
2022-08-08T09:50:03.284Z,92.20
2022-08-08T09:53:00.302Z,92.50
2022-08-08T09:55:31.659Z,90.50
2022-08-08T09:58:26.322Z,85.80
2022-08-08T10:01:14.482Z,85.40
2022-08-08T10:03:55.555Z,81.70
2022-08-08T10:06:29.463Z,78.50
2022-08-08T10:08:58.279Z,77.10
2022-08-08T10:12:28.358Z,75.40
2022-08-08T10:14:28.306Z,73.20
2022-08-08T10:17:56.496Z,73.50
2022-08-08T10:20:00.191Z,73.80
2022-08-08T10:22:30.483Z,75.00
2022-08-08T10:25:05.557Z,72.50
2022-08-08T10:27:42.780Z,71.30
2022-08-08T10:30:16.278Z,68.70
2022-08-08T10:33:02.071Z,68.80
2022-08-08T10:36:09.452Z,70.40
2022-08-08T10:38:21.469Z,71.30
2022-08-08T10:40:53.785Z,71.70
2022-08-08T10:43:23.330Z,69.20
2022-08-08T10:45:55.793Z,71.00
2022-08-08T10:48:37.311Z,71.90
2022-08-08T10:51:13.283Z,72.00
2022-08-08T10:53:56.889Z,71.50
2022-08-08T10:56:32.389Z,71.40
2022-08-08T10:59:07.934Z,69.70
2022-08-08T11:01:39.443Z,68.50
2022-08-08T11:04:11.817Z,70.20
2022-08-08T11:06:41.361Z,66.60
2022-08-08T11:09:21.162Z,67.00
2022-08-08T11:12:06.190Z,66.10
2022-08-08T11:14:51.268Z,65.30
2022-08-08T11:17:58.063Z,63.80
2022-08-08T11:20:17.804Z,63.50
2022-08-08T11:22:51.186Z,65.00
2022-08-08T11:25:46.256Z,65.80
2022-08-08T11:28:14.073Z,69.30
2022-08-08T11:30:50.397Z,70.30
2022-08-08T11:33:51.534Z,73.40
2022-08-08T11:36:15.540Z,75.20
2022-08-08T11:38:54.866Z,76.30
2022-08-08T11:41:24.924Z,79.30
2022-08-08T11:43:57.791Z,79.10
2022-08-08T11:46:31.391Z,79.60
2022-08-08T11:49:01.365Z,78.80
2022-08-08T11:51:40.255Z,79.50
2022-08-08T11:54:32.421Z,79.40
2022-08-08T11:57:16.676Z,79.60
2022-08-08T12:00:01.204Z,80.90
2022-08-08T12:02:33.892Z,80.50
2022-08-08T12:05:07.397Z,80.50
2022-08-08T12:07:51.377Z,79.80
2022-08-08T12:10:21.763Z,80.90
2022-08-08T12:12:54.561Z,80.70
2022-08-08T12:15:28.798Z,81.80
2022-08-08T12:17:56.849Z,81.80
2022-08-08T12:20:26.098Z,80.80
2022-08-08T12:22:57.041Z,81.00
2022-08-08T12:25:29.832Z,80.90
2022-08-08T12:28:15.566Z,80.00
2022-08-08T12:30:47.808Z,80.80
2022-08-08T12:33:19.753Z,82.00
2022-08-08T12:35:52.280Z,80.90
2022-08-08T12:38:30.439Z,81.20
2022-08-08T12:41:18.389Z,81.20
2022-08-08T12:44:00.776Z,81.60
2022-08-08T12:46:29.820Z,82.10
2022-08-08T12:49:25.079Z,82.10
2022-08-08T12:51:59.319Z,82.80
2022-08-08T12:54:36.019Z,82.40
2022-08-08T12:57:17.163Z,82.80
2022-08-08T13:00:04.564Z,82.90
2022-08-08T13:02:52.532Z,81.60
2022-08-08T13:05:26.379Z,82.40
2022-08-08T13:08:16.773Z,83.10
2022-08-08T13:10:56.927Z,81.40
2022-08-08T13:13:35.393Z,81.90
2022-08-08T13:16:19.082Z,81.70
2022-08-08T13:18:57.541Z,82.20
2022-08-08T13:21:36.508Z,82.30
2022-08-08T13:24:39.760Z,80.50
2022-08-08T13:27:13.520Z,80.50
2022-08-08T13:29:52.780Z,80.00
2022-08-08T13:32:28.552Z,80.10
2022-08-08T13:34:59.194Z,79.40
2022-08-08T13:38:05.653Z,80.70
2022-08-08T13:40:27.435Z,81.00
2022-08-08T13:42:58.429Z,81.20
2022-08-08T13:45:27.157Z,81.10
2022-08-08T13:47:59.655Z,80.90
2022-08-08T13:50:34.938Z,80.50
2022-08-08T13:53:25.235Z,80.70
2022-08-08T13:56:00.560Z,79.70
2022-08-08T13:58:30.736Z,78.90
2022-08-08T14:00:58.980Z,79.40
2022-08-08T14:03:52.583Z,80.10
2022-08-08T14:06:33.595Z,80.10
2022-08-08T14:09:25.228Z,80.30
2022-08-08T14:11:51.571Z,80.40
2022-08-08T14:14:26.181Z,79.90
2022-08-08T14:16:57.302Z,78.30
2022-08-08T14:19:57.448Z,79.10
2022-08-08T14:22:30.378Z,79.50
2022-08-08T14:25:00.400Z,79.20
2022-08-08T14:27:33.425Z,79.30
2022-08-08T14:30:18.503Z,80.20
2022-08-08T14:32:53.136Z,80.40
2022-08-08T14:35:28.264Z,79.40
2022-08-08T14:38:33.523Z,79.30
2022-08-08T14:40:59.006Z,79.80
2022-08-08T14:44:02.188Z,80.00
2022-08-08T14:46:31.065Z,79.70
2022-08-08T14:49:09.474Z,80.10
2022-08-08T14:51:53.103Z,79.60
2022-08-08T14:54:28.336Z,79.60
2022-08-08T14:56:57.981Z,79.40
2022-08-08T14:59:44.732Z,79.20
2022-08-08T15:02:28.255Z,79.90
2022-08-08T15:05:10.471Z,79.10
2022-08-08T15:07:41.593Z,78.80
2022-08-08T15:10:11.612Z,79.10
2022-08-08T15:12:41.762Z,78.70
2022-08-08T15:15:10.723Z,79.20
2022-08-08T15:17:49.474Z,80.00
2022-08-08T15:20:19.253Z,80.10
2022-08-08T15:22:47.313Z,79.90
2022-08-08T15:25:18.045Z,79.70
2022-08-08T15:28:04.266Z,80.00
2022-08-08T15:30:42.888Z,80.00
2022-08-08T15:33:14.347Z,79.20
2022-08-08T15:35:49.334Z,78.70
2022-08-08T15:38:17.861Z,80.00
2022-08-08T15:40:47.522Z,80.70
2022-08-08T15:43:34.675Z,80.70
2022-08-08T15:46:04.093Z,80.60
2022-08-08T15:48:33.553Z,80.80
2022-08-08T15:51:07.199Z,81.40
2022-08-08T15:53:40.492Z,81.60
2022-08-08T15:56:20.044Z,81.40
2022-08-08T15:58:50.178Z,81.60
2022-08-08T16:01:21.015Z,81.20
2022-08-08T16:03:52.272Z,80.50
2022-08-08T16:06:28.506Z,80.60
2022-08-08T16:13:00.904Z,81.30
2022-08-08T16:13:09.108Z,80.50
2022-08-08T16:14:34.806Z,81.30
2022-08-08T16:17:05.599Z,80.10
2022-08-08T16:19:57.117Z,81.50
2022-08-08T16:22:30.308Z,81.00
2022-08-08T16:24:59.049Z,81.50
2022-08-08T16:27:35.304Z,80.30
2022-08-08T16:30:13.296Z,80.20
2022-08-08T16:32:42.236Z,80.60
2022-08-08T16:35:11.961Z,80.90
2022-08-08T16:37:47.250Z,81.50
2022-08-08T16:40:19.580Z,80.90
2022-08-08T16:42:51.576Z,81.80
2022-08-08T16:46:43.499Z,81.70
2022-08-08T16:48:10.758Z,81.50
2022-08-08T16:50:43.315Z,81.40
2022-08-08T16:55:04.482Z,80.50
2022-08-08T16:56:00.575Z,80.10
2022-08-08T16:58:34.458Z,79.60
2022-08-08T17:01:05.563Z,80.40
2022-08-08T17:03:58.032Z,80.60
2022-08-08T17:06:37.666Z,81.00
2022-08-08T17:09:15.617Z,81.20
2022-08-08T17:11:48.684Z,81.60
2022-08-08T17:14:33.221Z,81.90
2022-08-08T17:17:03.234Z,81.80
2022-08-08T17:19:40.867Z,82.20
2022-08-08T17:22:12.336Z,82.40
2022-08-08T17:24:40.674Z,82.50
2022-08-08T17:27:08.833Z,82.30
2022-08-08T17:29:43.885Z,82.50
2022-08-08T17:32:34.110Z,82.00
2022-08-08T17:35:52.640Z,81.70
2022-08-08T17:38:02.227Z,81.10
2022-08-08T17:40:31.876Z,81.80
2022-08-08T17:43:00.673Z,82.40
2022-08-08T17:45:29.232Z,82.40
2022-08-08T17:48:00.935Z,82.60
2022-08-08T17:50:30.231Z,83.80
2022-08-08T17:52:58.223Z,81.00
2022-08-08T17:56:05.926Z,82.50
2022-08-08T17:58:17.872Z,83.70
2022-08-08T18:00:57.068Z,83.80
2022-08-08T18:03:25.595Z,84.00
2022-08-08T18:05:53.734Z,84.20
2022-08-08T18:08:38.200Z,84.40
2022-08-08T18:11:14.726Z,84.30
2022-08-08T18:13:45.203Z,84.60
2022-08-08T18:16:20.967Z,84.80
2022-08-08T18:18:53.880Z,84.90
2022-08-08T18:21:59.955Z,84.60
2022-08-08T18:24:19.541Z,84.70
2022-08-08T18:26:54.485Z,84.40
2022-08-08T18:29:29.573Z,84.70
2022-08-08T18:32:03.609Z,84.60
2022-08-08T18:34:33.330Z,84.60
2022-08-08T18:37:06.546Z,84.80
2022-08-08T18:39:40.974Z,85.20
2022-08-08T18:42:14.396Z,91.40
2022-08-08T18:44:55.960Z,88.70
2022-08-08T18:47:26.759Z,86.60
2022-08-08T18:49:58.444Z,87.00
2022-08-08T18:52:29.939Z,86.10
2022-08-08T18:55:01.094Z,87.20
2022-08-08T18:57:41.354Z,87.40
2022-08-08T19:00:15.674Z,87.30
2022-08-08T19:02:55.759Z,86.90
2022-08-08T19:05:31.749Z,88.80
2022-08-08T19:08:24.988Z,86.60
2022-08-08T19:10:57.735Z,87.30
2022-08-08T19:13:38.530Z,87.20
2022-08-08T19:16:19.393Z,88.00
2022-08-08T19:18:54.514Z,88.50
2022-08-08T19:21:30.148Z,87.80
2022-08-08T19:23:59.849Z,87.80
2022-08-08T19:26:30.119Z,88.30
2022-08-08T19:29:00.640Z,87.80
2022-08-08T19:31:31.665Z,88.40
2022-08-08T19:34:36.428Z,88.80
2022-08-08T19:36:55.350Z,88.90
2022-08-08T19:39:34.973Z,87.90
2022-08-08T19:42:03.823Z,88.60
2022-08-08T19:44:45.673Z,87.90
2022-08-08T19:47:14.537Z,89.00
2022-08-08T19:49:43.469Z,88.80
2022-08-08T19:52:34.463Z,88.80
2022-08-08T19:55:05.103Z,88.90
2022-08-08T19:57:34.923Z,88.70
2022-08-08T20:00:11.616Z,88.40
2022-08-08T20:02:56.493Z,89.10
2022-08-08T20:06:14.053Z,89.30
2022-08-08T20:08:28.650Z,89.00
2022-08-08T20:10:59.785Z,89.10
2022-08-08T20:14:12.766Z,89.70
2022-08-08T20:16:17.366Z,89.00
2022-08-08T20:18:53.098Z,89.10
2022-08-08T20:21:25.057Z,89.00
2022-08-08T20:23:57.681Z,89.30
2022-08-08T20:26:27.618Z,89.30
2022-08-08T20:28:59.152Z,89.60
2022-08-08T20:32:07.009Z,89.80
2022-08-08T20:34:29.049Z,89.60
2022-08-08T20:37:00.241Z,90.30
2022-08-08T20:39:39.338Z,90.10
2022-08-08T20:42:16.778Z,90.20
2022-08-08T20:44:44.935Z,90.50
2022-08-08T20:47:23.106Z,90.50
2022-08-08T20:49:54.322Z,90.70
2022-08-08T20:52:25.533Z,90.70
2022-08-08T20:54:53.640Z,90.80
2022-08-08T20:57:22.062Z,90.90
2022-08-08T20:59:55.874Z,90.90
2022-08-08T21:02:26.659Z,91.00
2022-08-08T21:04:58.106Z,91.10
2022-08-08T21:07:47.747Z,91.20
2022-08-08T21:10:17.324Z,91.20
2022-08-08T21:12:46.216Z,91.50
2022-08-08T21:16:04.036Z,91.20
2022-08-08T21:18:06.415Z,91.40
2022-08-08T21:20:34.994Z,91.50
2022-08-08T21:23:03.444Z,91.50
2022-08-08T21:25:37.155Z,91.70
2022-08-08T21:28:15.577Z,91.80
2022-08-08T21:30:45.329Z,91.90
2022-08-08T21:33:20.659Z,91.90
2022-08-08T21:36:17.368Z,92.00
2022-08-08T21:38:37.225Z,91.90
2022-08-08T21:41:05.339Z,92.10
2022-08-08T21:43:34.960Z,92.30
2022-08-08T21:48:05.363Z,92.20
2022-08-08T21:48:55.181Z,92.40
2022-08-08T21:54:18.446Z,92.40
2022-08-08T21:54:32.313Z,92.40
2022-08-08T21:57:02.769Z,92.40
2022-08-08T22:00:01.415Z,92.70
2022-08-08T22:02:23.302Z,92.70
2022-08-08T22:04:56.062Z,92.70
2022-08-08T22:07:39.724Z,92.70
2022-08-08T22:10:18.496Z,92.80
2022-08-08T22:13:18.261Z,92.80
2022-08-08T22:15:58.336Z,93.00
2022-08-08T22:18:29.661Z,92.90
2022-08-08T22:21:10.828Z,93.10
2022-08-08T22:23:50.428Z,93.50
2022-08-08T22:26:29.064Z,93.30
2022-08-08T22:29:13.426Z,93.40
2022-08-08T22:32:01.419Z,93.60
2022-08-08T22:34:31.490Z,93.70
2022-08-08T22:37:01.449Z,93.60
2022-08-08T22:39:45.791Z,93.60
2022-08-08T22:42:27.247Z,93.80
2022-08-08T22:44:56.265Z,93.70
2022-08-08T22:47:24.373Z,93.90
2022-08-08T22:50:26.297Z,94.30
2022-08-08T22:53:01.556Z,94.20
2022-08-08T22:55:59.007Z,94.40
2022-08-08T22:58:31.269Z,94.30
2022-08-08T23:01:00.912Z,94.60
2022-08-08T23:03:34.101Z,94.80
2022-08-08T23:06:17.639Z,94.90
2022-08-08T23:08:55.851Z,94.90
2022-08-08T23:12:17.896Z,95.00
2022-08-08T23:14:16.776Z,94.90
2022-08-08T23:16:57.484Z,95.40
2022-08-08T23:19:26.117Z,95.20
2022-08-08T23:21:54.336Z,95.30
2022-08-08T23:24:23.835Z,95.60
2022-08-08T23:26:55.313Z,95.80
2022-08-08T23:29:24.958Z,95.80
2022-08-08T23:31:53.667Z,96.00
2022-08-08T23:34:21.719Z,96.40
2022-08-08T23:36:56.595Z,96.30
2022-08-08T23:39:31.855Z,96.50
2022-08-08T23:42:00.693Z,96.70
2022-08-08T23:44:30.133Z,96.90
2022-08-08T23:49:03.338Z,97.00
2022-08-08T23:50:03.295Z,97.20
2022-08-08T23:52:34.316Z,97.50
2022-08-08T23:55:14.070Z,97.70
2022-08-08T23:57:52.436Z,97.50
